sensor_id;sensor_type;location;lat;lon;timestamp;pressure;altitude;pressure_sealevel;temperature;humidity
35676;BME280;21790;42.668;23.298;2022-10-31T00:01:50;95149.69;;;21.57;33.05
35676;BME280;21790;42.668;23.298;2022-10-31T00:04:15;95150.44;;;21.57;32.93
35676;BME280;21790;42.668;23.298;2022-10-31T00:06:40;95157.50;;;21.34;33.46
35676;BME280;21790;42.668;23.298;2022-10-31T00:09:06;95143.44;;;21.34;33.66
35676;BME280;21790;42.668;23.298;2022-10-31T00:11:31;95147.47;;;21.44;33.68
35676;BME280;21790;42.668;23.298;2022-10-31T00:13:58;95146.91;;;21.51;33.72
35676;BME280;21790;42.668;23.298;2022-10-31T00:16:25;95157.47;;;21.40;33.64
35676;BME280;21790;42.668;23.298;2022-10-31T00:18:52;95143.81;;;21.55;33.72
35676;BME280;21790;42.668;23.298;2022-10-31T00:21:18;95146.47;;;21.42;33.53
35676;BME280;21790;42.668;23.298;2022-10-31T00:23:44;95157.88;;;21.55;33.47
35676;BME280;21790;42.668;23.298;2022-10-31T00:26:10;95156.53;;;21.32;34.21
35676;BME280;21790;42.668;23.298;2022-10-31T00:28:36;95151.63;;;21.38;33.78
35676;BME280;21790;42.668;23.298;2022-10-31T00:31:03;95142.97;;;21.30;33.85
35676;BME280;21790;42.668;23.298;2022-10-31T00:33:30;95139.72;;;21.20;34.22
35676;BME280;21790;42.668;23.298;2022-10-31T00:35:56;95142.28;;;21.13;34.60
35676;BME280;21790;42.668;23.298;2022-10-31T00:38:21;95146.66;;;21.08;34.61
35676;BME280;21790;42.668;23.298;2022-10-31T00:40:47;95143.81;;;21.19;34.08
35676;BME280;21790;42.668;23.298;2022-10-31T00:43:12;95143.81;;;21.19;33.99
35676;BME280;21790;42.668;23.298;2022-10-31T00:45:38;95139.22;;;21.22;34.20
35676;BME280;21790;42.668;23.298;2022-10-31T00:48:04;95135.13;;;21.17;34.47
35676;BME280;21790;42.668;23.298;2022-10-31T00:50:29;95135.13;;;21.17;34.25
35676;BME280;21790;42.668;23.298;2022-10-31T00:52:55;95139.25;;;21.16;34.50
35676;BME280;21790;42.668;23.298;2022-10-31T00:55:20;95144.31;;;21.18;34.37
35676;BME280;21790;42.668;23.298;2022-10-31T00:57:46;95145.06;;;21.24;34.23
35676;BME280;21790;42.668;23.298;2022-10-31T01:00:13;95145.31;;;21.26;34.33
35676;BME280;21790;42.668;23.298;2022-10-31T01:02:38;95137.66;;;21.26;34.19
35676;BME280;21790;42.668;23.298;2022-10-31T01:05:04;95128.69;;;21.22;34.52
35676;BME280;21790;42.668;23.298;2022-10-31T01:07:29;95146.38;;;21.17;34.74
35676;BME280;21790;42.668;23.298;2022-10-31T01:09:55;95136.63;;;21.24;34.30
35676;BME280;21790;42.668;23.298;2022-10-31T01:12:20;95146.41;;;21.06;34.93
35676;BME280;21790;42.668;23.298;2022-10-31T01:14:46;95158.47;;;20.96;35.26
35676;BME280;21790;42.668;23.298;2022-10-31T01:17:12;95151.53;;;21.02;35.18
35676;BME280;21790;42.668;23.298;2022-10-31T01:19:38;95143.91;;;20.97;35.16
35676;BME280;21790;42.668;23.298;2022-10-31T01:22:04;95153.84;;;21.04;35.01
35676;BME280;21790;42.668;23.298;2022-10-31T01:24:29;95155.09;;;21.08;34.88
35676;BME280;21790;42.668;23.298;2022-10-31T01:26:55;95169.47;;;20.94;35.52
35676;BME280;21790;42.668;23.298;2022-10-31T01:29:20;95157.19;;;20.97;35.16
35676;BME280;21790;42.668;23.298;2022-10-31T01:31:45;95149.84;;;20.88;35.47
35676;BME280;21790;42.668;23.298;2022-10-31T01:34:16;95156.63;;;21.09;35.16
35676;BME280;21790;42.668;23.298;2022-10-31T01:36:42;95164.81;;;21.07;35.48
35676;BME280;21790;42.668;23.298;2022-10-31T01:39:11;95159.44;;;21.09;35.38
35676;BME280;21790;42.668;23.298;2022-10-31T01:41:40;95158.66;;;21.09;35.26
35676;BME280;21790;42.668;23.298;2022-10-31T01:46:44;95164.75;;;21.18;35.65
35676;BME280;21790;42.668;23.298;2022-10-31T01:49:17;95162.25;;;21.15;35.90
35676;BME280;21790;42.668;23.298;2022-10-31T01:51:48;95158.13;;;21.21;35.57
35676;BME280;21790;42.668;23.298;2022-10-31T01:54:19;95158.88;;;21.22;35.92
35676;BME280;21790;42.668;23.298;2022-10-31T01:56:48;95159.66;;;21.17;35.77
35676;BME280;21790;42.668;23.298;2022-10-31T01:59:18;95163.41;;;21.31;35.55
35676;BME280;21790;42.668;23.298;2022-10-31T02:01:45;95164.44;;;21.27;35.79
35676;BME280;21790;42.668;23.298;2022-10-31T02:04:11;95162.72;;;21.13;35.93
35676;BME280;21790;42.668;23.298;2022-10-31T02:06:45;95152.75;;;21.18;36.29
35676;BME280;21790;42.668;23.298;2022-10-31T02:09:13;95155.94;;;20.92;36.66
35676;BME280;21790;42.668;23.298;2022-10-31T02:11:40;95159.25;;;20.96;36.84
35676;BME280;21790;42.668;23.298;2022-10-31T02:14:06;95149.72;;;21.10;36.56
35676;BME280;21790;42.668;23.298;2022-10-31T02:16:32;95152.63;;;20.94;36.81
35676;BME280;21790;42.668;23.298;2022-10-31T02:18:57;95151.81;;;21.04;36.90
35676;BME280;21790;42.668;23.298;2022-10-31T02:21:35;95149.44;;;21.19;36.68
35676;BME280;21790;42.668;23.298;2022-10-31T02:40:34;95177.56;;;21.08;36.73
35676;BME280;21790;42.668;23.298;2022-10-31T02:48:16;95188.25;;;21.26;36.79
35676;BME280;21790;42.668;23.298;2022-10-31T02:50:49;95184.44;;;21.18;36.61
35676;BME280;21790;42.668;23.298;2022-10-31T02:53:15;95181.78;;;21.37;36.39
35676;BME280;21790;42.668;23.298;2022-10-31T02:58:10;95195.97;;;21.09;37.37
35676;BME280;21790;42.668;23.298;2022-10-31T03:01:01;95190.13;;;21.02;37.48
35676;BME280;21790;42.668;23.298;2022-10-31T03:06:06;95194.97;;;21.01;37.20
35676;BME280;21790;42.668;23.298;2022-10-31T03:08:49;95195.75;;;20.96;37.59
35676;BME280;21790;42.668;23.298;2022-10-31T03:11:15;95198.09;;;20.92;37.46
35676;BME280;21790;42.668;23.298;2022-10-31T03:13:47;95199.31;;;21.02;37.36
35676;BME280;21790;42.668;23.298;2022-10-31T03:21:15;95193.00;;;20.85;37.94
35676;BME280;21790;42.668;23.298;2022-10-31T03:23:42;95194.81;;;20.82;38.07
35676;BME280;21790;42.668;23.298;2022-10-31T03:26:08;95197.59;;;20.94;37.53
35676;BME280;21790;42.668;23.298;2022-10-31T03:28:43;95192.19;;;20.96;37.62
35676;BME280;21790;42.668;23.298;2022-10-31T03:31:10;95192.75;;;20.88;37.75
35676;BME280;21790;42.668;23.298;2022-10-31T03:33:38;95201.72;;;20.76;38.33
35676;BME280;21790;42.668;23.298;2022-10-31T03:36:08;95208.13;;;20.71;38.39
35676;BME280;21790;42.668;23.298;2022-10-31T03:38:35;95204.31;;;20.63;38.33
35676;BME280;21790;42.668;23.298;2022-10-31T03:41:03;95213.25;;;20.72;38.44
35676;BME280;21790;42.668;23.298;2022-10-31T03:43:33;95214.53;;;20.66;38.34
35676;BME280;21790;42.668;23.298;2022-10-31T03:46:02;95212.78;;;20.46;39.05
35676;BME280;21790;42.668;23.298;2022-10-31T03:48:28;95217.66;;;20.45;38.35
35676;BME280;21790;42.668;23.298;2022-10-31T03:51:15;95207.19;;;20.46;38.58
35676;BME280;21790;42.668;23.298;2022-10-31T03:53:50;95221.50;;;20.37;39.25
35676;BME280;21790;42.668;23.298;2022-10-31T03:57:05;95228.13;;;20.45;38.76
35676;BME280;21790;42.668;23.298;2022-10-31T04:01:29;95225.06;;;20.26;39.09
35676;BME280;21790;42.668;23.298;2022-10-31T04:03:56;95222.00;;;20.19;39.68
35676;BME280;21790;42.668;23.298;2022-10-31T04:06:21;95230.19;;;20.17;39.68
35676;BME280;21790;42.668;23.298;2022-10-31T04:08:49;95239.88;;;20.16;39.63
35676;BME280;21790;42.668;23.298;2022-10-31T04:11:18;95233.50;;;20.15;39.73
35676;BME280;21790;42.668;23.298;2022-10-31T04:13:47;95232.22;;;20.16;39.92
35676;BME280;21790;42.668;23.298;2022-10-31T04:16:14;95231.72;;;20.12;39.70
35676;BME280;21790;42.668;23.298;2022-10-31T04:18:40;95239.59;;;20.02;39.79
35676;BME280;21790;42.668;23.298;2022-10-31T04:21:07;95232.50;;;20.13;39.54
35676;BME280;21790;42.668;23.298;2022-10-31T04:23:34;95231.47;;;19.93;40.18
35676;BME280;21790;42.668;23.298;2022-10-31T04:26:00;95229.16;;;19.86;40.29
35676;BME280;21790;42.668;23.298;2022-10-31T04:28:25;95233.50;;;19.82;40.38
35676;BME280;21790;42.668;23.298;2022-10-31T04:30:51;95229.69;;;19.79;42.49
35676;BME280;21790;42.668;23.298;2022-10-31T04:33:18;95237.06;;;20.10;42.92
35676;BME280;21790;42.668;23.298;2022-10-31T04:35:44;95235.28;;;20.07;41.00
35676;BME280;21790;42.668;23.298;2022-10-31T04:38:11;95233.22;;;20.13;41.79
35676;BME280;21790;42.668;23.298;2022-10-31T04:40:37;95235.00;;;20.27;40.70
35676;BME280;21790;42.668;23.298;2022-10-31T04:43:03;95226.88;;;20.18;40.05
35676;BME280;21790;42.668;23.298;2022-10-31T04:45:28;95232.22;;;20.33;39.42
35676;BME280;21790;42.668;23.298;2022-10-31T04:47:54;95242.94;;;20.29;39.46
35676;BME280;21790;42.668;23.298;2022-10-31T04:50:19;95244.97;;;20.17;39.82
35676;BME280;21790;42.668;23.298;2022-10-31T04:52:46;95238.09;;;20.07;39.58
35676;BME280;21790;42.668;23.298;2022-10-31T04:55:12;95245.75;;;20.23;39.26
35676;BME280;21790;42.668;23.298;2022-10-31T04:57:44;95251.34;;;20.45;38.53
35676;BME280;21790;42.668;23.298;2022-10-31T05:00:11;95242.94;;;20.23;38.97
35676;BME280;21790;42.668;23.298;2022-10-31T05:02:47;95256.97;;;20.12;39.69
35676;BME280;21790;42.668;23.298;2022-10-31T05:05:16;95254.66;;;19.94;40.16
35676;BME280;21790;42.668;23.298;2022-10-31T05:07:43;95255.94;;;19.93;39.80
35676;BME280;21790;42.668;23.298;2022-10-31T05:10:11;95262.31;;;19.77;40.39
35676;BME280;21790;42.668;23.298;2022-10-31T05:12:37;95275.31;;;19.74;40.28
35676;BME280;21790;42.668;23.298;2022-10-31T05:15:04;95267.66;;;19.86;40.21
35676;BME280;21790;42.668;23.298;2022-10-31T05:17:31;95279.63;;;19.75;40.13
35676;BME280;21790;42.668;23.298;2022-10-31T05:19:56;95273.03;;;19.78;40.37
35676;BME280;21790;42.668;23.298;2022-10-31T05:22:21;95274.31;;;19.88;40.22
35676;BME280;21790;42.668;23.298;2022-10-31T05:24:47;95273.28;;;19.69;40.82
35676;BME280;21790;42.668;23.298;2022-10-31T05:27:12;95272.75;;;19.71;40.76
35676;BME280;21790;42.668;23.298;2022-10-31T05:29:38;95267.91;;;19.77;41.03
35676;BME280;21790;42.668;23.298;2022-10-31T05:32:03;95276.78;;;19.58;40.73
35676;BME280;21790;42.668;23.298;2022-10-31T05:34:29;95283.44;;;19.55;40.60
35676;BME280;21790;42.668;23.298;2022-10-31T05:36:54;95283.75;;;19.80;40.09
35676;BME280;21790;42.668;23.298;2022-10-31T05:39:19;95285.78;;;19.74;40.43
35676;BME280;21790;42.668;23.298;2022-10-31T05:41:45;95286.78;;;19.76;40.26
35676;BME280;21790;42.668;23.298;2022-10-31T05:44:10;95288.78;;;19.64;40.70
35676;BME280;21790;42.668;23.298;2022-10-31T05:46:36;95288.56;;;19.62;41.07
35676;BME280;21790;42.668;23.298;2022-10-31T05:49:01;95294.13;;;19.51;41.23
35676;BME280;21790;42.668;23.298;2022-10-31T05:51:27;95294.06;;;19.35;41.61
35676;BME280;21790;42.668;23.298;2022-10-31T05:53:52;95289.53;;;19.48;41.09
35676;BME280;21790;42.668;23.298;2022-10-31T05:56:18;95296.59;;;19.38;41.44
35676;BME280;21790;42.668;23.298;2022-10-31T05:58:43;95292.13;;;19.57;41.32
35676;BME280;21790;42.668;23.298;2022-10-31T06:01:08;95296.72;;;19.83;40.85
35676;BME280;21790;42.668;23.298;2022-10-31T06:03:34;95300.31;;;20.00;40.69
35676;BME280;21790;42.668;23.298;2022-10-31T06:05:59;95299.84;;;20.18;40.19
35676;BME280;21790;42.668;23.298;2022-10-31T06:08:25;95307.75;;;20.48;39.52
35676;BME280;21790;42.668;23.298;2022-10-31T06:10:50;95316.91;;;20.65;39.23
35676;BME280;21790;42.668;23.298;2022-10-31T06:13:18;95320.47;;;20.82;38.76
35676;BME280;21790;42.668;23.298;2022-10-31T06:15:43;95314.22;;;21.11;38.38
35676;BME280;21790;42.668;23.298;2022-10-31T06:18:09;95320.38;;;21.10;38.26
35676;BME280;21790;42.668;23.298;2022-10-31T06:20:35;95319.63;;;21.20;38.01
35676;BME280;21790;42.668;23.298;2022-10-31T06:23:01;95331.59;;;21.26;37.93
35676;BME280;21790;42.668;23.298;2022-10-31T06:25:27;95330.25;;;21.39;37.94
35676;BME280;21790;42.668;23.298;2022-10-31T06:27:52;95326.13;;;21.51;37.63
35676;BME280;21790;42.668;23.298;2022-10-31T06:30:18;95333.94;;;21.75;37.04
35676;BME280;21790;42.668;23.298;2022-10-31T06:32:43;95333.88;;;21.86;36.84
35676;BME280;21790;42.668;23.298;2022-10-31T06:35:09;95332.00;;;21.99;36.53
35676;BME280;21790;42.668;23.298;2022-10-31T06:37:35;95339.53;;;22.21;36.31
35676;BME280;21790;42.668;23.298;2022-10-31T06:40:01;95337.16;;;22.36;36.25
35676;BME280;21790;42.668;23.298;2022-10-31T06:42:27;95335.03;;;22.42;35.93
35676;BME280;21790;42.668;23.298;2022-10-31T06:44:52;95343.38;;;22.53;35.93
35676;BME280;21790;42.668;23.298;2022-10-31T06:47:18;95343.31;;;22.59;35.65
35676;BME280;21790;42.668;23.298;2022-10-31T06:49:44;95343.22;;;22.70;35.84
35676;BME280;21790;42.668;23.298;2022-10-31T06:52:09;95343.75;;;22.74;35.44
35676;BME280;21790;42.668;23.298;2022-10-31T06:54:35;95338.47;;;22.89;35.40
35676;BME280;21790;42.668;23.298;2022-10-31T06:57:00;95342.13;;;22.84;35.20
35676;BME280;21790;42.668;23.298;2022-10-31T06:59:26;95332.66;;;22.82;35.35
35676;BME280;21790;42.668;23.298;2022-10-31T07:01:51;95344.06;;;22.95;35.24
35676;BME280;21790;42.668;23.298;2022-10-31T07:04:17;95340.19;;;22.98;35.12
35676;BME280;21790;42.668;23.298;2022-10-31T07:06:42;95346.72;;;23.12;35.20
35676;BME280;21790;42.668;23.298;2022-10-31T07:09:08;95335.38;;;23.17;35.27
35676;BME280;21790;42.668;23.298;2022-10-31T07:11:33;95349.16;;;23.45;34.96
35676;BME280;21790;42.668;23.298;2022-10-31T07:13:59;95344.00;;;23.49;34.75
35676;BME280;21790;42.668;23.298;2022-10-31T07:16:25;95345.47;;;23.56;34.80
35676;BME280;21790;42.668;23.298;2022-10-31T07:18:51;95342.94;;;23.52;34.74
35676;BME280;21790;42.668;23.298;2022-10-31T07:21:16;95340.97;;;23.66;34.81
35676;BME280;21790;42.668;23.298;2022-10-31T07:23:42;95336.41;;;23.82;34.46
35676;BME280;21790;42.668;23.298;2022-10-31T07:26:09;95331.72;;;24.03;34.14
35676;BME280;21790;42.668;23.298;2022-10-31T07:28:35;95324.47;;;24.07;34.33
35676;BME280;21790;42.668;23.298;2022-10-31T07:31:00;95316.88;;;24.21;34.45
35676;BME280;21790;42.668;23.298;2022-10-31T07:33:26;95317.13;;;24.36;33.92
35676;BME280;21790;42.668;23.298;2022-10-31T07:35:51;95320.66;;;24.55;33.89
35676;BME280;21790;42.668;23.298;2022-10-31T07:38:17;95321.50;;;24.50;33.04
35676;BME280;21790;42.668;23.298;2022-10-31T07:40:42;95315.19;;;24.44;33.61
35676;BME280;21790;42.668;23.298;2022-10-31T07:43:08;95319.44;;;24.51;34.00
35676;BME280;21790;42.668;23.298;2022-10-31T07:45:35;95318.28;;;24.59;33.68
35676;BME280;21790;42.668;23.298;2022-10-31T07:48:00;95320.94;;;24.71;33.63
35676;BME280;21790;42.668;23.298;2022-10-31T07:50:31;95312.56;;;24.78;33.76
35676;BME280;21790;42.668;23.298;2022-10-31T07:53:00;95325.13;;;24.96;33.20
35676;BME280;21790;42.668;23.298;2022-10-31T07:55:26;95317.94;;;24.95;33.41
35676;BME280;21790;42.668;23.298;2022-10-31T07:57:56;95318.16;;;25.10;33.29
35676;BME280;21790;42.668;23.298;2022-10-31T08:00:21;95321.88;;;25.18;32.89
35676;BME280;21790;42.668;23.298;2022-10-31T08:02:47;95324.06;;;25.12;33.20
35676;BME280;21790;42.668;23.298;2022-10-31T08:05:12;95327.88;;;25.28;32.58
35676;BME280;21790;42.668;23.298;2022-10-31T08:07:37;95332.22;;;25.29;32.96
35676;BME280;21790;42.668;23.298;2022-10-31T08:10:03;95327.53;;;25.45;32.87
35676;BME280;21790;42.668;23.298;2022-10-31T08:12:28;95329.06;;;25.59;32.55
35676;BME280;21790;42.668;23.298;2022-10-31T08:14:54;95322.09;;;25.73;32.48
35676;BME280;21790;42.668;23.298;2022-10-31T08:17:19;95327.16;;;25.88;32.27
35676;BME280;21790;42.668;23.298;2022-10-31T08:19:45;95327.72;;;25.86;32.23
35676;BME280;21790;42.668;23.298;2022-10-31T08:22:11;95332.25;;;26.02;32.00
35676;BME280;21790;42.668;23.298;2022-10-31T08:24:37;95326.13;;;26.11;31.53
35676;BME280;21790;42.668;23.298;2022-10-31T08:27:02;95336.28;;;26.41;31.49
35676;BME280;21790;42.668;23.298;2022-10-31T08:29:28;95326.88;;;26.46;31.30
35676;BME280;21790;42.668;23.298;2022-10-31T08:31:53;95323.19;;;26.51;30.98
35676;BME280;21790;42.668;23.298;2022-10-31T08:34:19;95327.31;;;26.71;31.12
35676;BME280;21790;42.668;23.298;2022-10-31T08:36:44;95327.84;;;26.69;30.75
35676;BME280;21790;42.668;23.298;2022-10-31T08:39:11;95327.44;;;26.86;31.17
35676;BME280;21790;42.668;23.298;2022-10-31T08:41:36;95326.97;;;26.95;30.73
35676;BME280;21790;42.668;23.298;2022-10-31T08:44:02;95314.78;;;27.08;29.90
35676;BME280;21790;42.668;23.298;2022-10-31T08:46:27;95322.41;;;26.92;30.42
35676;BME280;21790;42.668;23.298;2022-10-31T08:48:53;95311.13;;;26.99;30.55
35676;BME280;21790;42.668;23.298;2022-10-31T08:51:19;95312.84;;;27.02;30.59
35676;BME280;21790;42.668;23.298;2022-10-31T08:53:44;95322.19;;;27.11;30.54
35676;BME280;21790;42.668;23.298;2022-10-31T08:56:10;95326.03;;;27.21;30.39
35676;BME280;21790;42.668;23.298;2022-10-31T08:58:35;95317.97;;;27.32;30.39
35676;BME280;21790;42.668;23.298;2022-10-31T09:01:01;95319.31;;;27.39;30.02
35676;BME280;21790;42.668;23.298;2022-10-31T09:03:28;95320.91;;;27.47;30.17
35676;BME280;21790;42.668;23.298;2022-10-31T09:05:56;95316.69;;;27.41;29.96
35676;BME280;21790;42.668;23.298;2022-10-31T09:08:22;95313.78;;;27.54;30.12
35676;BME280;21790;42.668;23.298;2022-10-31T09:10:48;95320.47;;;27.72;30.07
35676;BME280;21790;42.668;23.298;2022-10-31T09:13:16;95319.19;;;27.80;29.75
35676;BME280;21790;42.668;23.298;2022-10-31T09:15:45;95318.66;;;27.89;29.74
35676;BME280;21790;42.668;23.298;2022-10-31T09:18:12;95313.97;;;28.00;29.57
35676;BME280;21790;42.668;23.298;2022-10-31T09:20:39;95313.09;;;28.12;29.44
35676;BME280;21790;42.668;23.298;2022-10-31T09:23:22;95309.00;;;28.36;29.19
35676;BME280;21790;42.668;23.298;2022-10-31T09:25:49;95303.28;;;28.28;29.33
35676;BME280;21790;42.668;23.298;2022-10-31T09:28:18;95311.66;;;28.49;29.17
35676;BME280;21790;42.668;23.298;2022-10-31T09:30:49;95315.28;;;28.57;29.10
35676;BME280;21790;42.668;23.298;2022-10-31T09:33:16;95301.63;;;28.56;28.94
35676;BME280;21790;42.668;23.298;2022-10-31T09:35:42;95303.53;;;28.61;29.26
35676;BME280;21790;42.668;23.298;2022-10-31T09:40:38;95308.50;;;28.83;29.13
35676;BME280;21790;42.668;23.298;2022-10-31T09:51:33;95299.38;;;29.00;28.56
35676;BME280;21790;42.668;23.298;2022-10-31T09:56:31;95295.00;;;29.14;28.10
35676;BME280;21790;42.668;23.298;2022-10-31T09:59:03;95290.81;;;29.30;28.11
35676;BME280;21790;42.668;23.298;2022-10-31T10:06:51;95291.38;;;29.44;27.93
35676;BME280;21790;42.668;23.298;2022-10-31T10:09:20;95282.03;;;29.59;27.62
35676;BME280;21790;42.668;23.298;2022-10-31T10:12:19;95295.44;;;29.81;26.96
35676;BME280;21790;42.668;23.298;2022-10-31T10:17:48;95263.94;;;29.71;27.19
35676;BME280;21790;42.668;23.298;2022-10-31T10:23:38;95274.38;;;29.76;27.44
35676;BME280;21790;42.668;23.298;2022-10-31T10:28:40;95254.41;;;29.84;26.54
35676;BME280;21790;42.668;23.298;2022-10-31T10:31:20;95260.63;;;29.98;26.54
35676;BME280;21790;42.668;23.298;2022-10-31T10:41:47;95250.69;;;29.66;26.61
35676;BME280;21790;42.668;23.298;2022-10-31T10:44:34;95237.75;;;29.65;27.19
35676;BME280;21790;42.668;23.298;2022-10-31T10:47:20;95241.72;;;29.77;26.49
35676;BME280;21790;42.668;23.298;2022-10-31T10:50:18;95240.09;;;29.99;25.95
35676;BME280;21790;42.668;23.298;2022-10-31T10:52:47;95233.78;;;30.08;25.26
35676;BME280;21790;42.668;23.298;2022-10-31T10:55:38;95234.13;;;30.12;25.40
35676;BME280;21790;42.668;23.298;2022-10-31T10:58:07;95242.31;;;30.08;25.71
35676;BME280;21790;42.668;23.298;2022-10-31T11:00:44;95237.06;;;30.29;25.52
35676;BME280;21790;42.668;23.298;2022-10-31T11:03:13;95235.59;;;30.21;25.83
35676;BME280;21790;42.668;23.298;2022-10-31T11:08:33;95240.53;;;30.20;25.34
35676;BME280;21790;42.668;23.298;2022-10-31T11:11:26;95232.91;;;30.23;24.78
35676;BME280;21790;42.668;23.298;2022-10-31T11:14:13;95231.47;;;30.14;24.94
35676;BME280;21790;42.668;23.298;2022-10-31T11:16:43;95226.88;;;30.19;24.27
35676;BME280;21790;42.668;23.298;2022-10-31T11:19:20;95229.94;;;30.13;24.69
35676;BME280;21790;42.668;23.298;2022-10-31T11:21:47;95224.66;;;30.10;24.71
35676;BME280;21790;42.668;23.298;2022-10-31T11:24:16;95221.28;;;29.96;25.07
35676;BME280;21790;42.668;23.298;2022-10-31T11:26:44;95220.94;;;29.92;25.29
35676;BME280;21790;42.668;23.298;2022-10-31T11:29:17;95220.72;;;29.98;25.53
35676;BME280;21790;42.668;23.298;2022-10-31T11:31:46;95213.13;;;30.00;25.63
35676;BME280;21790;42.668;23.298;2022-10-31T11:36:53;95202.13;;;29.89;25.40
35676;BME280;21790;42.668;23.298;2022-10-31T11:39:23;95204.56;;;30.00;25.78
35676;BME280;21790;42.668;23.298;2022-10-31T11:41:52;95207.25;;;29.98;25.64
35676;BME280;21790;42.668;23.298;2022-10-31T11:44:27;95202.13;;;29.89;25.57
35676;BME280;21790;42.668;23.298;2022-10-31T11:46:57;95206.06;;;30.01;25.55
35676;BME280;21790;42.668;23.298;2022-10-31T11:52:07;95187.34;;;29.83;25.87
35676;BME280;21790;42.668;23.298;2022-10-31T11:54:50;95190.38;;;29.85;25.39
35676;BME280;21790;42.668;23.298;2022-10-31T11:57:42;95183.53;;;29.88;25.69
35676;BME280;21790;42.668;23.298;2022-10-31T12:00:33;95182.50;;;30.01;25.44
35676;BME280;21790;42.668;23.298;2022-10-31T12:03:22;95188.50;;;30.12;25.53
35676;BME280;21790;42.668;23.298;2022-10-31T12:06:03;95183.53;;;30.20;24.85
35676;BME280;21790;42.668;23.298;2022-10-31T12:08:32;95180.78;;;30.05;25.48
35676;BME280;21790;42.668;23.298;2022-10-31T12:17:05;95180.50;;;29.86;25.56
35676;BME280;21790;42.668;23.298;2022-10-31T12:28:40;95180.06;;;29.89;25.47
35676;BME280;21790;42.668;23.298;2022-10-31T12:34:02;95168.50;;;29.87;25.61
35676;BME280;21790;42.668;23.298;2022-10-31T12:45:09;95170.16;;;29.66;25.69
35676;BME280;21790;42.668;23.298;2022-10-31T12:58:42;95168.63;;;29.65;26.17
35676;BME280;21790;42.668;23.298;2022-10-31T13:04:00;95163.25;;;29.44;26.25
35676;BME280;21790;42.668;23.298;2022-10-31T13:06:34;95164.00;;;29.44;25.76
35676;BME280;21790;42.668;23.298;2022-10-31T13:09:05;95174.06;;;29.45;25.82
35676;BME280;21790;42.668;23.298;2022-10-31T13:11:38;95173.53;;;29.39;25.93
35676;BME280;21790;42.668;23.298;2022-10-31T13:14:25;95173.69;;;29.41;25.84
35676;BME280;21790;42.668;23.298;2022-10-31T13:16:53;95164.63;;;29.28;25.97
35676;BME280;21790;42.668;23.298;2022-10-31T13:19:27;95168.38;;;29.30;25.90
35676;BME280;21790;42.668;23.298;2022-10-31T13:21:55;95162.75;;;29.15;25.80
35676;BME280;21790;42.668;23.298;2022-10-31T13:24:36;95169.53;;;29.27;25.90
35676;BME280;21790;42.668;23.298;2022-10-31T13:27:36;95156.63;;;29.26;26.35
35676;BME280;21790;42.668;23.298;2022-10-31T13:30:20;95157.22;;;29.25;26.58
35676;BME280;21790;42.668;23.298;2022-10-31T13:33:25;95162.03;;;29.07;26.44
35676;BME280;21790;42.668;23.298;2022-10-31T13:38:47;95162.81;;;28.92;26.57
35676;BME280;21790;42.668;23.298;2022-10-31T13:44:39;95162.59;;;29.05;26.44
35676;BME280;21790;42.668;23.298;2022-10-31T13:47:21;95162.66;;;28.90;26.00
35676;BME280;21790;42.668;23.298;2022-10-31T13:49:48;95156.03;;;28.73;26.75
35676;BME280;21790;42.668;23.298;2022-10-31T13:52:16;95165.13;;;28.56;26.36
35676;BME280;21790;42.668;23.298;2022-10-31T13:54:48;95160.41;;;28.36;26.83
35676;BME280;21790;42.668;23.298;2022-10-31T13:57:19;95159.28;;;28.46;26.79
35676;BME280;21790;42.668;23.298;2022-10-31T13:59:55;95155.31;;;28.19;27.04
35676;BME280;21790;42.668;23.298;2022-10-31T14:02:28;95160.78;;;28.09;27.20
35676;BME280;21790;42.668;23.298;2022-10-31T14:05:00;95156.81;;;28.20;27.02
35676;BME280;21790;42.668;23.298;2022-10-31T14:07:27;95158.50;;;28.23;27.06
35676;BME280;21790;42.668;23.298;2022-10-31T14:10:07;95160.59;;;28.15;27.26
35676;BME280;21790;42.668;23.298;2022-10-31T14:12:45;95162.50;;;28.20;26.92
35676;BME280;21790;42.668;23.298;2022-10-31T14:15:26;95160.91;;;27.88;26.98
35676;BME280;21790;42.668;23.298;2022-10-31T14:18:01;95169.59;;;27.75;27.25
35676;BME280;21790;42.668;23.298;2022-10-31T14:20:41;95180.22;;;27.75;27.36
35676;BME280;21790;42.668;23.298;2022-10-31T14:23:37;95172.44;;;27.75;27.16
35676;BME280;21790;42.668;23.298;2022-10-31T14:28:47;95170.38;;;27.99;26.99
35676;BME280;21790;42.668;23.298;2022-10-31T14:33:59;95175.88;;;28.04;26.98
35676;BME280;21790;42.668;23.298;2022-10-31T14:36:39;95167.56;;;28.06;27.27
35676;BME280;21790;42.668;23.298;2022-10-31T14:39:32;95171.94;;;28.15;27.09
35676;BME280;21790;42.668;23.298;2022-10-31T14:52:53;95169.84;;;28.00;28.18
35676;BME280;21790;42.668;23.298;2022-10-31T14:55:21;95177.94;;;27.73;28.50
35676;BME280;21790;42.668;23.298;2022-10-31T14:58:07;95179.81;;;27.71;28.75
35676;BME280;21790;42.668;23.298;2022-10-31T15:00:33;95172.88;;;27.36;29.32
35676;BME280;21790;42.668;23.298;2022-10-31T15:05:45;95162.47;;;27.38;29.61
35676;BME280;21790;42.668;23.298;2022-10-31T15:10:56;95178.16;;;27.32;29.56
35676;BME280;21790;42.668;23.298;2022-10-31T15:13:22;95183.94;;;27.19;29.84
35676;BME280;21790;42.668;23.298;2022-10-31T15:15:48;95176.16;;;27.12;29.73
35676;BME280;21790;42.668;23.298;2022-10-31T15:18:19;95183.94;;;27.19;30.03
35676;BME280;21790;42.668;23.298;2022-10-31T15:20:45;95189.59;;;27.11;30.04
35676;BME280;21790;42.668;23.298;2022-10-31T15:23:25;95179.06;;;26.91;30.53
35676;BME280;21790;42.668;23.298;2022-10-31T15:25:58;95184.03;;;26.70;30.61
35676;BME280;21790;42.668;23.298;2022-10-31T15:28:27;95196.22;;;26.57;31.19
35676;BME280;21790;42.668;23.298;2022-10-31T15:30:58;95197.41;;;26.61;30.57